createdAt,value
2018-05-01T00:01:10.394Z,79.30
2018-05-01T00:03:39.338Z,80.10
2018-05-01T00:06:08.271Z,80.60
2018-05-01T00:08:37.209Z,81.10
2018-05-01T00:11:06.912Z,81.30
2018-05-01T00:13:36.649Z,81.30
2018-05-01T00:16:05.590Z,81.30
2018-05-01T00:18:34.512Z,80.70
2018-05-01T00:21:04.252Z,79.60
2018-05-01T00:23:33.159Z,79.50
2018-05-01T00:26:02.093Z,80.00
2018-05-01T00:28:31.006Z,80.60
2018-05-01T00:30:59.977Z,81.40
2018-05-01T00:33:29.697Z,81.20
2018-05-01T00:35:59.498Z,81.30
2018-05-01T00:38:29.155Z,81.40
2018-05-01T00:40:58.068Z,81.40
2018-05-01T00:43:26.979Z,81.50
2018-05-01T00:45:55.866Z,82.20
2018-05-01T00:48:24.775Z,82.50
2018-05-01T00:50:54.475Z,82.80
2018-05-01T00:53:24.203Z,82.90
2018-05-01T00:55:53.888Z,83.10
2018-05-01T00:58:22.786Z,83.10
2018-05-01T01:00:52.454Z,81.00
2018-05-01T01:03:21.331Z,80.90
2018-05-01T01:05:50.269Z,81.80
2018-05-01T01:08:19.202Z,82.50
2018-05-01T01:10:48.097Z,82.90
2018-05-01T01:13:16.999Z,80.30
2018-05-01T01:15:45.910Z,80.50
2018-05-01T01:18:14.808Z,81.00
2018-05-01T01:20:43.730Z,81.60
2018-05-01T01:23:12.652Z,81.00
2018-05-01T01:25:41.596Z,81.10
2018-05-01T01:28:11.259Z,81.50
2018-05-01T01:30:40.176Z,81.10
2018-05-01T01:33:09.485Z,81.50
2018-05-01T01:35:37.538Z,81.50
2018-05-01T01:38:05.716Z,81.60
2018-05-01T01:40:33.851Z,81.50
2018-05-01T01:43:02.050Z,81.70
2018-05-01T01:45:30.241Z,81.20
2018-05-01T01:47:58.375Z,81.70
2018-05-01T01:50:26.527Z,81.70
2018-05-01T01:52:54.638Z,82.00
2018-05-01T01:55:22.807Z,82.40
2018-05-01T01:57:50.945Z,82.90
2018-05-01T02:00:19.880Z,82.50
2018-05-01T02:02:48.060Z,82.50
2018-05-01T02:05:16.194Z,82.80
2018-05-01T02:07:44.377Z,83.30
2018-05-01T02:10:12.516Z,83.20
2018-05-01T02:12:41.449Z,83.50
2018-05-01T02:15:09.645Z,83.40
2018-05-01T02:17:37.817Z,83.50
2018-05-01T02:20:05.987Z,83.30
2018-05-01T02:22:34.099Z,83.40
2018-05-01T02:25:03.045Z,82.40
2018-05-01T02:27:31.228Z,82.40
2018-05-01T02:29:59.367Z,82.10
2018-05-01T02:32:27.507Z,82.10
2018-05-01T02:34:56.520Z,82.80
2018-05-01T02:37:24.702Z,82.80
2018-05-01T02:39:52.867Z,82.50
2018-05-01T02:42:21.065Z,79.70
2018-05-01T02:44:49.252Z,80.50
2018-05-01T02:47:17.429Z,80.90
2018-05-01T02:49:45.662Z,81.70
2018-05-01T02:52:19.287Z,82.10
2018-05-01T02:54:47.431Z,81.80
2018-05-01T02:57:16.339Z,82.20
2018-05-01T02:59:44.466Z,82.20
2018-05-01T03:02:12.708Z,81.80
2018-05-01T03:04:40.873Z,82.50
2018-05-01T03:07:08.994Z,82.40
2018-05-01T03:09:37.974Z,82.90
2018-05-01T03:12:06.815Z,82.10
2018-05-01T03:14:35.008Z,81.90
2018-05-01T03:17:03.154Z,82.10
2018-05-01T03:19:31.267Z,82.90
2018-05-01T03:21:59.424Z,83.20
2018-05-01T03:24:27.612Z,83.80
2018-05-01T03:26:55.809Z,82.80
2018-05-01T03:29:23.968Z,80.60
2018-05-01T03:31:52.142Z,81.50
2018-05-01T03:34:20.319Z,82.50
2018-05-01T03:36:48.521Z,83.00
2018-05-01T03:39:17.427Z,82.80
2018-05-01T03:41:45.584Z,82.70
2018-05-01T03:44:13.718Z,81.90
2018-05-01T03:46:41.900Z,82.20
2018-05-01T03:49:10.073Z,82.20
2018-05-01T03:51:38.199Z,82.20
2018-05-01T03:54:06.364Z,82.10
2018-05-01T03:56:34.486Z,82.70
2018-05-01T03:59:02.622Z,82.80
2018-05-01T04:01:31.608Z,82.90
2018-05-01T04:03:59.731Z,82.90
2018-05-01T04:06:27.862Z,82.70
2018-05-01T04:08:56.021Z,83.00
2018-05-01T04:11:25.119Z,81.90
2018-05-01T04:13:53.286Z,81.50
2018-05-01T04:16:21.472Z,81.60
2018-05-01T04:18:49.647Z,81.70
2018-05-01T04:21:17.800Z,80.00
2018-05-01T04:23:46.747Z,78.50
2018-05-01T04:26:14.918Z,78.70
2018-05-01T04:28:43.101Z,78.20
2018-05-01T04:31:11.322Z,78.50
2018-05-01T04:33:39.459Z,78.30
2018-05-01T04:36:07.650Z,76.70
2018-05-01T04:38:35.840Z,73.40
2018-05-01T04:41:04.028Z,68.00
2018-05-01T04:43:32.187Z,63.90
2018-05-01T04:46:00.317Z,60.50
2018-05-01T04:48:28.455Z,58.50
2018-05-01T04:50:56.644Z,56.60
2018-05-01T04:53:24.833Z,53.70
2018-05-01T04:55:53.012Z,51.80
2018-05-01T04:58:27.095Z,50.40
2018-05-01T05:00:55.366Z,48.90
2018-05-01T05:03:23.553Z,46.20
2018-05-01T05:05:51.724Z,45.80
2018-05-01T05:08:19.859Z,44.20
2018-05-01T05:10:48.069Z,43.40
2018-05-01T05:13:16.206Z,42.60
2018-05-01T05:15:44.383Z,41.40
2018-05-01T05:18:12.557Z,40.10
2018-05-01T05:20:40.720Z,39.30
2018-05-01T05:23:09.687Z,37.20
2018-05-01T05:25:37.882Z,37.20
2018-05-01T05:28:06.077Z,36.00
2018-05-01T05:30:34.537Z,34.70
2018-05-01T05:33:02.820Z,34.10
2018-05-01T05:35:31.003Z,33.90
2018-05-01T05:37:59.187Z,35.10
2018-05-01T05:40:27.423Z,34.00
2018-05-01T05:42:55.585Z,34.70
2018-05-01T05:45:23.768Z,33.20
2018-05-01T05:47:51.948Z,33.10
2018-05-01T05:50:20.855Z,29.10
2018-05-01T05:52:49.042Z,29.10
2018-05-01T05:55:17.198Z,29.30
2018-05-01T05:57:45.456Z,30.80
2018-05-01T06:00:13.620Z,31.50
2018-05-01T06:02:43.220Z,27.80
2018-05-01T06:05:11.418Z,27.70
2018-05-01T06:07:40.448Z,26.70
2018-05-01T06:10:08.568Z,26.60
2018-05-01T06:12:36.730Z,26.60
2018-05-01T06:15:04.897Z,26.30
2018-05-01T06:17:33.116Z,25.30
2018-05-01T06:20:01.266Z,25.20
2018-05-01T06:22:29.395Z,24.10
2018-05-01T06:24:57.554Z,24.10
2018-05-01T06:27:25.729Z,23.70
2018-05-01T06:29:53.878Z,23.20
2018-05-01T06:32:22.764Z,23.60
2018-05-01T06:34:51.647Z,23.70
2018-05-01T06:37:20.647Z,23.90
2018-05-01T06:39:48.808Z,23.80
2018-05-01T06:42:18.070Z,23.80
2018-05-01T06:44:46.285Z,23.70
2018-05-01T06:47:14.485Z,23.50
2018-05-01T06:49:42.648Z,23.10
2018-05-01T06:52:10.823Z,23.50
2018-05-01T06:54:39.036Z,24.00
2018-05-01T06:57:07.182Z,24.80
2018-05-01T06:59:35.306Z,25.70
2018-05-01T07:02:03.435Z,26.10
2018-05-01T07:04:31.601Z,25.40
2018-05-01T07:06:59.770Z,25.80
2018-05-01T07:09:27.923Z,25.70
2018-05-01T07:11:56.094Z,24.00
2018-05-01T07:14:25.061Z,22.50
2018-05-01T07:16:53.169Z,22.50
2018-05-01T07:19:21.348Z,22.60
2018-05-01T07:21:49.524Z,21.80
2018-05-01T07:24:17.694Z,21.20
2018-05-01T07:26:45.806Z,20.20
2018-05-01T07:29:13.949Z,20.80
2018-05-01T07:31:42.074Z,20.90
2018-05-01T07:34:10.223Z,20.80
2018-05-01T07:36:38.425Z,20.10
2018-05-01T07:39:06.559Z,20.90
2018-05-01T07:41:34.722Z,20.10
2018-05-01T07:44:03.656Z,20.40
2018-05-01T07:46:32.590Z,20.30
2018-05-01T07:49:01.573Z,19.50
2018-05-01T07:51:29.712Z,19.40
2018-05-01T07:53:57.891Z,20.50
2018-05-01T07:56:26.080Z,20.10
2018-05-01T07:58:55.013Z,20.80
2018-05-01T08:01:23.166Z,20.80
2018-05-01T08:03:51.327Z,20.80
2018-05-01T08:06:19.467Z,19.60
2018-05-01T08:08:47.623Z,19.80
2018-05-01T08:11:15.816Z,20.30
2018-05-01T08:13:44.005Z,20.20
2018-05-01T08:16:12.936Z,22.00
2018-05-01T08:18:41.159Z,22.00
2018-05-01T08:21:09.364Z,22.30
2018-05-01T08:23:37.496Z,23.30
2018-05-01T08:26:05.668Z,21.90
2018-05-01T08:28:33.811Z,21.30
2018-05-01T08:31:01.980Z,21.30
2018-05-01T08:33:30.124Z,21.10
2018-05-01T08:35:58.271Z,20.90
2018-05-01T08:38:27.205Z,21.60
2018-05-01T08:40:55.399Z,21.50
2018-05-01T08:43:23.789Z,21.80
2018-05-01T08:45:52.035Z,23.40
2018-05-01T08:48:20.215Z,23.80
2018-05-01T08:50:48.376Z,25.00
2018-05-01T08:53:17.204Z,26.30
2018-05-01T08:55:45.439Z,26.40
2018-05-01T08:58:13.616Z,27.50
2018-05-01T09:00:41.784Z,27.40
2018-05-01T09:03:10.163Z,25.90
2018-05-01T09:05:38.609Z,25.90
2018-05-01T09:08:06.801Z,25.50
2018-05-01T09:10:34.928Z,24.60
2018-05-01T09:13:03.100Z,26.40
2018-05-01T09:15:31.358Z,24.40
2018-05-01T09:18:00.318Z,24.50
2018-05-01T09:20:28.404Z,24.40
2018-05-01T09:22:56.541Z,24.80
2018-05-01T09:25:25.471Z,23.20
2018-05-01T09:27:53.727Z,23.10
2018-05-01T09:30:21.872Z,23.00
2018-05-01T09:32:50.043Z,22.20
2018-05-01T09:35:18.208Z,24.30
2018-05-01T09:37:46.385Z,22.80
2018-05-01T09:40:15.294Z,23.20
2018-05-01T09:42:44.202Z,23.60
2018-05-01T09:45:12.361Z,23.60
2018-05-01T09:47:41.359Z,24.90
2018-05-01T09:50:09.523Z,24.90
2018-05-01T09:52:38.453Z,24.80
2018-05-01T09:55:07.330Z,26.60
2018-05-01T09:57:36.224Z,24.30
2018-05-01T10:00:05.132Z,22.50
2018-05-01T10:02:34.025Z,23.10
2018-05-01T10:05:02.962Z,22.90
2018-05-01T10:07:32.656Z,24.90
2018-05-01T10:10:01.533Z,24.80
2018-05-01T10:12:30.442Z,27.30
2018-05-01T10:14:59.369Z,29.20
2018-05-01T10:17:28.268Z,29.00
2018-05-01T10:19:57.481Z,28.40
2018-05-01T10:22:26.413Z,28.00
2018-05-01T10:24:55.325Z,28.80
2018-05-01T10:27:24.235Z,30.00
2018-05-01T10:29:53.995Z,28.90
2018-05-01T10:32:22.874Z,29.30
2018-05-01T10:34:51.801Z,29.90
2018-05-01T10:37:21.483Z,31.10
2018-05-01T10:39:50.386Z,31.00
2018-05-01T10:42:19.335Z,29.10
2018-05-01T10:44:48.210Z,28.50
2018-05-01T10:47:17.104Z,28.70
2018-05-01T10:49:46.056Z,29.90
2018-05-01T10:52:16.843Z,26.90
2018-05-01T10:54:46.852Z,26.90
2018-05-01T10:57:15.800Z,26.70
2018-05-01T10:59:45.555Z,26.90
2018-05-01T11:02:14.431Z,26.90
2018-05-01T11:04:43.349Z,28.10
2018-05-01T11:07:12.268Z,28.90
2018-05-01T11:09:41.196Z,28.70
2018-05-01T11:12:10.097Z,27.50
2018-05-01T11:14:38.987Z,26.50
2018-05-01T11:17:07.906Z,28.00
2018-05-01T11:19:36.856Z,28.50
2018-05-01T11:22:06.556Z,27.10
2018-05-01T11:24:36.250Z,28.20
2018-05-01T11:27:05.164Z,28.20
2018-05-01T11:29:34.112Z,26.80
2018-05-01T11:32:03.787Z,26.20
2018-05-01T11:34:34.081Z,24.70
2018-05-01T11:37:02.987Z,24.70
2018-05-01T11:39:31.977Z,24.90
2018-05-01T11:42:00.897Z,25.30
2018-05-01T11:44:29.881Z,26.30
2018-05-01T11:46:58.797Z,25.20
2018-05-01T11:49:27.699Z,26.80
2018-05-01T11:51:56.655Z,25.40
2018-05-01T11:54:25.539Z,27.00
2018-05-01T11:56:54.481Z,25.20
2018-05-01T11:59:23.417Z,25.50
2018-05-01T12:01:52.384Z,27.20
2018-05-01T12:04:21.342Z,26.40
2018-05-01T12:06:50.319Z,24.30
2018-05-01T12:09:19.219Z,23.70
2018-05-01T12:11:48.184Z,26.10
2018-05-01T12:14:17.076Z,25.90
2018-05-01T12:16:45.984Z,25.70
2018-05-01T12:19:14.905Z,25.50
2018-05-01T12:21:43.815Z,25.70
2018-05-01T12:24:13.480Z,24.80
2018-05-01T12:26:42.405Z,24.80
2018-05-01T12:29:12.076Z,26.50
2018-05-01T12:31:41.006Z,26.40
2018-05-01T12:34:10.713Z,24.50
2018-05-01T12:36:40.451Z,25.90
2018-05-01T12:39:09.308Z,25.90
2018-05-01T12:41:38.983Z,22.80
2018-05-01T12:44:07.923Z,22.80
2018-05-01T12:46:36.820Z,23.90
2018-05-01T12:49:05.733Z,23.20
2018-05-01T12:51:34.663Z,23.60
2018-05-01T12:54:04.143Z,23.20
2018-05-01T12:56:33.114Z,24.70
2018-05-01T12:59:02.033Z,24.10
2018-05-01T13:01:30.932Z,24.40
2018-05-01T13:03:59.886Z,25.20
2018-05-01T13:06:28.781Z,24.20
2018-05-01T13:08:57.706Z,24.30
2018-05-01T13:11:26.599Z,25.60
2018-05-01T13:13:55.499Z,25.20
2018-05-01T13:16:24.373Z,24.90
2018-05-01T13:18:53.280Z,25.20
2018-05-01T13:21:22.209Z,25.10
2018-05-01T13:23:51.138Z,25.40
2018-05-01T13:26:20.043Z,25.60
2018-05-01T13:28:48.976Z,25.70
2018-05-01T13:31:17.928Z,26.30
2018-05-01T13:33:46.840Z,26.40
2018-05-01T13:36:16.502Z,25.80
2018-05-01T13:38:45.414Z,25.80
2018-05-01T13:41:14.404Z,26.70
2018-05-01T13:43:43.275Z,25.70
2018-05-01T13:46:12.215Z,26.60
2018-05-01T13:48:42.086Z,26.80
2018-05-01T13:51:11.049Z,26.80
2018-05-01T13:53:40.731Z,26.90
2018-05-01T13:56:10.747Z,28.10
2018-05-01T13:58:40.445Z,28.60
2018-05-01T14:01:09.393Z,28.50
2018-05-01T14:03:38.305Z,28.30
2018-05-01T14:06:07.283Z,28.50
2018-05-01T14:08:36.220Z,28.60
2018-05-01T14:11:05.227Z,29.50
2018-05-01T14:13:34.121Z,28.20
2018-05-01T14:16:03.028Z,27.60
2018-05-01T14:18:31.955Z,27.80
2018-05-01T14:21:00.909Z,27.90
2018-05-01T14:23:29.837Z,28.50
2018-05-01T14:25:58.731Z,26.90
2018-05-01T14:28:27.669Z,27.20
2018-05-01T14:30:56.540Z,27.10
2018-05-01T14:33:25.457Z,27.00
2018-05-01T14:35:54.359Z,27.20
2018-05-01T14:38:23.234Z,26.70
2018-05-01T14:40:52.177Z,27.60
2018-05-01T14:43:21.870Z,27.60
2018-05-01T14:45:50.772Z,27.60
2018-05-01T14:48:19.721Z,28.10
2018-05-01T14:50:48.681Z,27.60
2018-05-01T14:53:18.358Z,27.80
2018-05-01T14:55:47.274Z,27.80
2018-05-01T14:58:16.539Z,28.00
2018-05-01T15:00:45.454Z,27.50
2018-05-01T15:03:14.366Z,27.50
2018-05-01T15:05:44.107Z,29.10
2018-05-01T15:08:13.010Z,29.10
2018-05-01T15:10:41.944Z,29.40
2018-05-01T15:13:10.867Z,29.40
2018-05-01T15:15:39.808Z,29.40
2018-05-01T15:18:08.721Z,29.30
2018-05-01T15:20:39.646Z,30.00
2018-05-01T15:23:08.564Z,30.00
2018-05-01T15:25:38.301Z,30.00
2018-05-01T15:28:07.249Z,29.20
2018-05-01T15:30:36.978Z,30.00
2018-05-01T15:33:05.932Z,30.00
2018-05-01T15:35:34.848Z,29.80
2018-05-01T15:38:04.552Z,32.10
2018-05-01T15:40:34.577Z,31.80
2018-05-01T15:43:05.309Z,31.30
2018-05-01T15:45:36.176Z,31.30
2018-05-01T15:48:06.026Z,31.30
2018-05-01T15:50:35.104Z,31.70
2018-05-01T15:53:04.033Z,31.70
2018-05-01T15:55:32.996Z,32.70
2018-05-01T15:58:01.921Z,33.10
2018-05-01T16:00:30.974Z,32.60
2018-05-01T16:02:59.921Z,35.60
2018-05-01T16:05:29.559Z,38.70
2018-05-01T16:07:58.493Z,38.60
2018-05-01T16:10:28.201Z,39.50
2018-05-01T16:12:57.157Z,39.40
2018-05-01T16:15:26.109Z,39.00
2018-05-01T16:17:55.839Z,38.60
2018-05-01T16:20:24.726Z,38.50
2018-05-01T16:22:53.645Z,38.00
2018-05-01T16:25:22.629Z,38.50
2018-05-01T16:27:51.530Z,39.40
2018-05-01T16:30:20.441Z,40.00
2018-05-01T16:32:49.344Z,41.60
2018-05-01T16:35:19.060Z,40.90
2018-05-01T16:37:47.964Z,41.30
2018-05-01T16:40:17.704Z,38.50
2018-05-01T16:42:46.621Z,38.50
2018-05-01T16:45:15.571Z,39.00
2018-05-01T16:47:44.591Z,39.30
2018-05-01T16:50:13.518Z,40.00
2018-05-01T16:52:42.448Z,41.20
2018-05-01T16:55:11.417Z,41.90
2018-05-01T16:57:41.159Z,42.80
2018-05-01T17:00:10.146Z,42.00
2018-05-01T17:02:39.158Z,43.10
2018-05-01T17:05:08.076Z,42.80
2018-05-01T17:07:37.096Z,43.30
2018-05-01T17:10:06.987Z,43.30
2018-05-01T17:12:35.952Z,43.20
2018-05-01T17:15:04.944Z,43.30
2018-05-01T17:17:33.871Z,43.70
2018-05-01T17:20:02.897Z,44.30
2018-05-01T17:22:33.353Z,44.50
2018-05-01T17:25:02.412Z,45.20
2018-05-01T17:27:31.223Z,45.60
2018-05-01T17:30:00.141Z,45.90
2018-05-01T17:32:29.079Z,45.30
2018-05-01T17:34:58.025Z,45.70
2018-05-01T17:37:27.729Z,45.10
2018-05-01T17:39:56.663Z,45.10
2018-05-01T17:42:25.629Z,46.20
2018-05-01T17:44:58.530Z,46.60
2018-05-01T17:47:28.405Z,46.30
2018-05-01T17:49:57.366Z,46.60
2018-05-01T17:52:26.316Z,46.00
2018-05-01T17:57:35.636Z,46.60
2018-05-01T18:00:04.609Z,45.80
2018-05-01T18:02:33.648Z,44.60
2018-05-01T18:05:02.737Z,46.50
2018-05-01T18:07:31.708Z,46.40
2018-05-01T18:10:00.713Z,45.70
2018-05-01T18:12:29.754Z,46.00
2018-05-01T18:15:03.021Z,46.60
2018-05-01T18:17:32.052Z,46.50
2018-05-01T18:20:00.975Z,46.10
2018-05-01T18:22:34.785Z,46.20
2018-05-01T18:25:03.768Z,47.10
2018-05-01T18:27:32.809Z,47.80
2018-05-01T18:30:01.777Z,47.90
2018-05-01T18:32:30.715Z,48.70
2018-05-01T18:35:00.441Z,48.30
2018-05-01T18:37:31.734Z,48.20
2018-05-01T18:40:04.177Z,48.30
2018-05-01T18:42:33.127Z,48.10
2018-05-01T18:45:02.803Z,48.20
2018-05-01T18:47:31.724Z,48.20
2018-05-01T18:50:01.445Z,50.90
2018-05-01T18:52:31.072Z,52.60
2018-05-01T18:55:00.058Z,52.60
2018-05-01T18:57:29.113Z,52.30
2018-05-01T18:59:58.833Z,52.70
2018-05-01T19:02:27.748Z,52.70
2018-05-01T19:04:57.422Z,52.20
2018-05-01T19:07:28.173Z,52.20
2018-05-01T19:09:57.067Z,50.90
2018-05-01T19:12:26.093Z,50.70
2018-05-01T19:14:55.007Z,50.30
2018-05-01T19:17:24.113Z,50.40
2018-05-01T19:19:53.124Z,50.50
2018-05-01T19:22:21.952Z,50.80
2018-05-01T19:24:50.937Z,51.30
2018-05-01T19:27:22.017Z,52.00
2018-05-01T19:29:50.919Z,52.50
2018-05-01T19:32:19.902Z,53.10
2018-05-01T19:34:48.819Z,53.30
2018-05-01T19:37:17.791Z,53.80
2018-05-01T19:39:46.757Z,54.00
2018-05-01T19:42:16.422Z,54.40
2018-05-01T19:44:46.152Z,54.60
2018-05-01T19:47:15.173Z,54.50
2018-05-01T19:49:44.099Z,54.80
2018-05-01T19:52:13.024Z,55.00
2018-05-01T19:54:41.915Z,55.10
2018-05-01T19:57:10.811Z,55.10
2018-05-01T19:59:39.740Z,55.20
2018-05-01T20:02:08.670Z,55.10
2018-05-01T20:04:37.606Z,55.50
2018-05-01T20:07:06.537Z,55.40
2018-05-01T20:09:35.843Z,55.60
2018-05-01T20:12:04.747Z,55.80
2018-05-01T20:14:34.431Z,56.30
2018-05-01T20:17:03.380Z,56.20
2018-05-01T20:19:32.343Z,56.40
2018-05-01T20:22:02.065Z,57.00
2018-05-01T20:24:40.675Z,56.90
2018-05-01T20:27:09.569Z,57.10
2018-05-01T20:29:39.304Z,56.90
2018-05-01T20:32:08.203Z,56.80
2018-05-01T20:34:37.184Z,56.90
2018-05-01T20:37:06.220Z,56.60
2018-05-01T20:39:35.171Z,56.70
2018-05-01T20:42:04.100Z,56.70
2018-05-01T20:44:33.039Z,56.70
2018-05-01T20:47:02.044Z,56.40
2018-05-01T20:49:30.985Z,56.40
2018-05-01T20:51:59.928Z,56.30
2018-05-01T20:54:28.869Z,56.20
2018-05-01T20:56:57.791Z,56.50
2018-05-01T20:59:26.716Z,56.30
2018-05-01T21:01:55.658Z,56.90
2018-05-01T21:04:25.323Z,57.10
2018-05-01T21:06:54.274Z,57.00
2018-05-01T21:09:23.174Z,57.10
2018-05-01T21:11:52.135Z,57.10
2018-05-01T21:14:21.055Z,58.20
2018-05-01T21:16:49.983Z,57.90
2018-05-01T21:19:18.839Z,58.20
2018-05-01T21:21:47.768Z,58.40
2018-05-01T21:24:16.685Z,58.90
2018-05-01T21:26:45.639Z,58.80
2018-05-01T21:29:14.536Z,58.50
2018-05-01T21:31:43.446Z,58.70
2018-05-01T21:34:12.336Z,58.40
2018-05-01T21:36:41.258Z,58.70
2018-05-01T21:39:10.365Z,58.50
2018-05-01T21:41:39.276Z,58.70
2018-05-01T21:44:08.206Z,59.20
2018-05-01T21:46:37.269Z,59.20
2018-05-01T21:49:06.375Z,59.70
2018-05-01T21:51:35.328Z,59.60
2018-05-01T21:54:04.285Z,59.90
2018-05-01T21:56:33.262Z,59.90
2018-05-01T21:59:02.924Z,60.30
2018-05-01T22:01:31.887Z,60.30
2018-05-01T22:04:01.625Z,61.00
2018-05-01T22:06:30.592Z,60.90
2018-05-01T22:09:00.332Z,60.80
2018-05-01T22:11:29.281Z,60.80
2018-05-01T22:13:58.317Z,61.30
2018-05-01T22:16:27.195Z,61.20
2018-05-01T22:18:56.201Z,61.30
2018-05-01T22:21:25.192Z,61.30
2018-05-01T22:23:54.169Z,60.90
2018-05-01T22:26:23.049Z,60.80
2018-05-01T22:29:04.888Z,60.60
2018-05-01T22:31:33.965Z,61.10
2018-05-01T22:34:02.875Z,61.20
2018-05-01T22:36:31.836Z,62.60
2018-05-01T22:39:00.766Z,61.80
2018-05-01T22:41:29.701Z,61.90
2018-05-01T22:43:59.419Z,62.90
2018-05-01T22:46:29.094Z,63.60
2018-05-01T22:48:58.039Z,63.50
2018-05-01T22:51:26.967Z,63.20
2018-05-01T22:53:55.872Z,64.30
2018-05-01T22:56:24.824Z,64.20
2018-05-01T22:58:53.732Z,63.00
2018-05-01T23:01:22.711Z,62.80
2018-05-01T23:03:51.705Z,64.60
2018-05-01T23:06:20.648Z,63.20
2018-05-01T23:08:50.401Z,61.10
2018-05-01T23:11:19.319Z,61.10
2018-05-01T23:13:48.251Z,60.80
2018-05-01T23:16:17.947Z,60.90
2018-05-01T23:18:47.595Z,62.40
2018-05-01T23:21:16.485Z,61.60
2018-05-01T23:23:45.370Z,62.10
2018-05-01T23:26:14.242Z,62.00
2018-05-01T23:28:43.182Z,61.90
2018-05-01T23:31:12.124Z,62.30
2018-05-01T23:33:41.828Z,62.60
2018-05-01T23:36:11.480Z,62.70
2018-05-01T23:38:40.434Z,62.60
2018-05-01T23:41:10.159Z,63.30
2018-05-01T23:43:39.058Z,63.30
2018-05-01T23:46:08.027Z,62.80
2018-05-01T23:48:36.924Z,62.90
2018-05-01T23:51:05.848Z,63.60
2018-05-01T23:53:34.808Z,63.20
2018-05-01T23:56:03.690Z,63.30
2018-05-01T23:58:32.595Z,63.30
